sensor_id;sensor_type;location;lat;lon;timestamp;P1;durP1;ratioP1;P2;durP2;ratioP2
72394;SDS011;60384;48.152;11.614;2024-03-08T07:08:24;17.38;;;7.97;;
72394;SDS011;60384;48.152;11.614;2024-03-08T07:11:27;27.65;;;10.93;;
72394;SDS011;60384;48.152;11.614;2024-03-08T07:17:33;20.63;;;9.57;;
72394;SDS011;60384;48.152;11.614;2024-03-08T07:20:38;24.33;;;10.05;;
72394;SDS011;60384;48.152;11.614;2024-03-08T07:27:04;23.35;;;9.77;;
72394;SDS011;60384;48.152;11.614;2024-03-08T07:30:07;26.08;;;10.82;;
72394;SDS011;60384;48.152;11.614;2024-03-08T07:33:12;24.05;;;10.45;;
72394;SDS011;60384;48.152;11.614;2024-03-08T07:39:18;27.47;;;10.77;;
72394;SDS011;60384;48.152;11.614;2024-03-08T07:42:20;23.42;;;9.48;;
72394;SDS011;60384;48.152;11.614;2024-03-08T07:45:23;22.90;;;10.38;;
72394;SDS011;60384;48.152;11.614;2024-03-08T07:51:27;23.37;;;10.27;;
72394;SDS011;60384;48.152;11.614;2024-03-08T07:57:33;26.02;;;9.68;;
72394;SDS011;60384;48.152;11.614;2024-03-08T08:00:35;25.40;;;10.48;;
72394;SDS011;60384;48.152;11.614;2024-03-08T08:03:37;29.35;;;11.93;;
72394;SDS011;60384;48.152;11.614;2024-03-08T08:06:42;26.23;;;12.20;;
72394;SDS011;60384;48.152;11.614;2024-03-08T08:09:46;26.20;;;10.85;;
72394;SDS011;60384;48.152;11.614;2024-03-08T08:12:48;24.70;;;11.05;;
72394;SDS011;60384;48.152;11.614;2024-03-08T08:15:52;28.13;;;11.02;;
72394;SDS011;60384;48.152;11.614;2024-03-08T08:18:54;26.83;;;11.15;;
72394;SDS011;60384;48.152;11.614;2024-03-08T08:21:56;27.15;;;12.48;;
72394;SDS011;60384;48.152;11.614;2024-03-08T08:28:02;19.67;;;9.07;;
72394;SDS011;60384;48.152;11.614;2024-03-08T08:31:09;26.50;;;10.27;;
72394;SDS011;60384;48.152;11.614;2024-03-08T08:34:14;26.63;;;10.63;;
72394;SDS011;60384;48.152;11.614;2024-03-08T08:37:19;24.00;;;10.63;;
72394;SDS011;60384;48.152;11.614;2024-03-08T08:40:23;25.80;;;12.13;;
72394;SDS011;60384;48.152;11.614;2024-03-08T08:43:26;24.23;;;9.98;;
72394;SDS011;60384;48.152;11.614;2024-03-08T08:46:28;32.53;;;12.57;;
72394;SDS011;60384;48.152;11.614;2024-03-08T08:49:32;26.35;;;11.23;;
72394;SDS011;60384;48.152;11.614;2024-03-08T08:52:35;23.08;;;10.85;;
72394;SDS011;60384;48.152;11.614;2024-03-08T08:55:41;22.85;;;10.48;;
72394;SDS011;60384;48.152;11.614;2024-03-08T08:58:43;25.83;;;11.25;;
72394;SDS011;60384;48.152;11.614;2024-03-08T09:01:45;23.13;;;10.05;;
72394;SDS011;60384;48.152;11.614;2024-03-08T09:04:48;22.60;;;9.95;;
72394;SDS011;60384;48.152;11.614;2024-03-08T09:07:50;27.33;;;12.05;;
72394;SDS011;60384;48.152;11.614;2024-03-08T09:10:54;25.25;;;10.27;;
72394;SDS011;60384;48.152;11.614;2024-03-08T09:13:56;25.65;;;11.00;;
72394;SDS011;60384;48.152;11.614;2024-03-08T09:16:58;25.30;;;10.57;;
72394;SDS011;60384;48.152;11.614;2024-03-08T09:20:00;22.33;;;10.50;;
72394;SDS011;60384;48.152;11.614;2024-03-08T09:23:04;24.08;;;10.60;;
72394;SDS011;60384;48.152;11.614;2024-03-08T09:26:08;24.27;;;12.55;;
72394;SDS011;60384;48.152;11.614;2024-03-08T09:29:11;25.40;;;11.55;;
72394;SDS011;60384;48.152;11.614;2024-03-08T09:32:13;23.98;;;10.48;;
72394;SDS011;60384;48.152;11.614;2024-03-08T09:35:15;19.63;;;8.18;;
72394;SDS011;60384;48.152;11.614;2024-03-08T09:38:19;25.58;;;10.43;;
72394;SDS011;60384;48.152;11.614;2024-03-08T09:41:23;23.95;;;10.25;;
72394;SDS011;60384;48.152;11.614;2024-03-08T09:44:28;26.35;;;11.60;;
72394;SDS011;60384;48.152;11.614;2024-03-08T09:50:34;23.70;;;11.23;;
72394;SDS011;60384;48.152;11.614;2024-03-08T09:53:39;22.70;;;10.15;;
72394;SDS011;60384;48.152;11.614;2024-03-08T09:56:43;26.02;;;10.77;;
72394;SDS011;60384;48.152;11.614;2024-03-08T09:59:46;26.05;;;12.05;;
72394;SDS011;60384;48.152;11.614;2024-03-08T10:02:49;24.98;;;10.40;;
72394;SDS011;60384;48.152;11.614;2024-03-08T10:05:55;22.25;;;10.50;;
72394;SDS011;60384;48.152;11.614;2024-03-08T10:09:00;23.58;;;9.95;;
72394;SDS011;60384;48.152;11.614;2024-03-08T10:12:04;18.45;;;8.48;;
72394;SDS011;60384;48.152;11.614;2024-03-08T10:15:07;25.77;;;10.38;;
72394;SDS011;60384;48.152;11.614;2024-03-08T10:18:10;23.85;;;9.80;;
72394;SDS011;60384;48.152;11.614;2024-03-08T10:21:13;18.38;;;9.35;;
72394;SDS011;60384;48.152;11.614;2024-03-08T10:24:17;19.23;;;9.15;;
72394;SDS011;60384;48.152;11.614;2024-03-08T10:27:21;22.85;;;9.60;;
72394;SDS011;60384;48.152;11.614;2024-03-08T10:30:23;19.13;;;9.13;;
72394;SDS011;60384;48.152;11.614;2024-03-08T10:36:28;20.13;;;9.33;;
72394;SDS011;60384;48.152;11.614;2024-03-08T10:39:31;20.45;;;9.13;;
72394;SDS011;60384;48.152;11.614;2024-03-08T10:42:40;16.20;;;8.18;;
72394;SDS011;60384;48.152;11.614;2024-03-08T10:45:50;20.50;;;9.45;;
72394;SDS011;60384;48.152;11.614;2024-03-08T10:49:10;19.60;;;9.07;;
72394;SDS011;60384;48.152;11.614;2024-03-08T10:52:18;16.55;;;7.78;;
72394;SDS011;60384;48.152;11.614;2024-03-08T10:55:24;17.80;;;7.53;;
72394;SDS011;60384;48.152;11.614;2024-03-08T10:58:30;20.02;;;9.05;;
72394;SDS011;60384;48.152;11.614;2024-03-08T11:01:33;21.63;;;8.63;;
72394;SDS011;60384;48.152;11.614;2024-03-08T11:04:39;18.63;;;8.52;;
72394;SDS011;60384;48.152;11.614;2024-03-08T11:07:47;18.30;;;9.23;;
72394;SDS011;60384;48.152;11.614;2024-03-08T11:10:52;19.23;;;8.27;;
72394;SDS011;60384;48.152;11.614;2024-03-08T11:13:57;18.58;;;9.07;;
72394;SDS011;60384;48.152;11.614;2024-03-08T11:17:00;18.17;;;9.27;;
72394;SDS011;60384;48.152;11.614;2024-03-08T11:20:11;19.70;;;8.00;;
72394;SDS011;60384;48.152;11.614;2024-03-08T11:23:17;20.20;;;9.82;;
72394;SDS011;60384;48.152;11.614;2024-03-08T11:26:27;18.67;;;9.00;;
72394;SDS011;60384;48.152;11.614;2024-03-08T11:29:33;21.88;;;9.68;;
72394;SDS011;60384;48.152;11.614;2024-03-08T11:32:43;20.55;;;9.43;;
72394;SDS011;60384;48.152;11.614;2024-03-08T11:35:47;19.85;;;9.30;;
72394;SDS011;60384;48.152;11.614;2024-03-08T11:38:49;21.65;;;9.75;;
72394;SDS011;60384;48.152;11.614;2024-03-08T11:41:53;17.90;;;9.32;;
72394;SDS011;60384;48.152;11.614;2024-03-08T11:44:57;20.02;;;8.65;;
72394;SDS011;60384;48.152;11.614;2024-03-08T11:47:59;21.00;;;9.60;;
72394;SDS011;60384;48.152;11.614;2024-03-08T11:51:01;18.13;;;9.02;;
72394;SDS011;60384;48.152;11.614;2024-03-08T11:54:05;20.77;;;9.95;;
72394;SDS011;60384;48.152;11.614;2024-03-08T11:57:08;21.35;;;9.68;;
72394;SDS011;60384;48.152;11.614;2024-03-08T12:00:16;18.65;;;9.85;;
72394;SDS011;60384;48.152;11.614;2024-03-08T12:03:25;19.88;;;9.20;;
72394;SDS011;60384;48.152;11.614;2024-03-08T12:06:27;18.85;;;9.23;;
72394;SDS011;60384;48.152;11.614;2024-03-08T12:09:40;21.20;;;9.98;;
72394;SDS011;60384;48.152;11.614;2024-03-08T12:12:46;20.08;;;10.30;;
72394;SDS011;60384;48.152;11.614;2024-03-08T12:15:51;18.65;;;9.00;;
72394;SDS011;60384;48.152;11.614;2024-03-08T12:18:53;19.17;;;10.20;;
72394;SDS011;60384;48.152;11.614;2024-03-08T12:21:56;19.73;;;10.15;;
72394;SDS011;60384;48.152;11.614;2024-03-08T12:25:05;17.55;;;9.68;;
72394;SDS011;60384;48.152;11.614;2024-03-08T12:28:11;19.20;;;9.90;;
72394;SDS011;60384;48.152;11.614;2024-03-08T12:31:17;19.92;;;10.20;;
72394;SDS011;60384;48.152;11.614;2024-03-08T12:34:20;19.15;;;10.10;;
72394;SDS011;60384;48.152;11.614;2024-03-08T12:40:25;17.02;;;8.98;;
72394;SDS011;60384;48.152;11.614;2024-03-08T12:43:28;19.10;;;9.40;;
72394;SDS011;60384;48.152;11.614;2024-03-08T12:46:33;20.40;;;9.80;;
72394;SDS011;60384;48.152;11.614;2024-03-08T12:49:35;19.35;;;8.68;;
72394;SDS011;60384;48.152;11.614;2024-03-08T12:52:37;20.75;;;9.82;;
72394;SDS011;60384;48.152;11.614;2024-03-08T12:55:39;19.65;;;9.52;;
72394;SDS011;60384;48.152;11.614;2024-03-08T12:58:41;21.65;;;10.10;;
72394;SDS011;60384;48.152;11.614;2024-03-08T13:01:45;17.88;;;9.45;;
72394;SDS011;60384;48.152;11.614;2024-03-08T13:04:49;18.65;;;9.73;;
72394;SDS011;60384;48.152;11.614;2024-03-08T13:07:57;18.45;;;9.38;;
72394;SDS011;60384;48.152;11.614;2024-03-08T13:14:02;18.13;;;9.43;;
72394;SDS011;60384;48.152;11.614;2024-03-08T13:17:07;16.15;;;8.52;;
72394;SDS011;60384;48.152;11.614;2024-03-08T13:20:11;17.42;;;9.10;;
72394;SDS011;60384;48.152;11.614;2024-03-08T13:23:18;16.83;;;8.40;;
72394;SDS011;60384;48.152;11.614;2024-03-08T13:29:22;16.73;;;8.75;;
72394;SDS011;60384;48.152;11.614;2024-03-08T13:35:27;16.27;;;8.40;;
72394;SDS011;60384;48.152;11.614;2024-03-08T13:38:30;16.15;;;8.85;;
72394;SDS011;60384;48.152;11.614;2024-03-08T13:41:32;15.85;;;8.68;;
72394;SDS011;60384;48.152;11.614;2024-03-08T13:44:35;16.83;;;8.88;;
72394;SDS011;60384;48.152;11.614;2024-03-08T13:47:39;16.02;;;8.43;;
72394;SDS011;60384;48.152;11.614;2024-03-08T13:50:41;16.58;;;8.77;;
72394;SDS011;60384;48.152;11.614;2024-03-08T13:56:45;14.25;;;8.18;;
72394;SDS011;60384;48.152;11.614;2024-03-08T14:02:51;17.98;;;9.13;;
72394;SDS011;60384;48.152;11.614;2024-03-08T14:05:55;16.85;;;9.32;;
72394;SDS011;60384;48.152;11.614;2024-03-08T14:08:57;16.83;;;8.73;;
72394;SDS011;60384;48.152;11.614;2024-03-08T14:15:04;17.38;;;8.48;;
72394;SDS011;60384;48.152;11.614;2024-03-08T14:18:08;15.93;;;8.82;;
72394;SDS011;60384;48.152;11.614;2024-03-08T14:21:11;15.90;;;7.95;;
72394;SDS011;60384;48.152;11.614;2024-03-08T14:27:15;16.67;;;9.18;;
72394;SDS011;60384;48.152;11.614;2024-03-08T14:30:18;16.67;;;9.57;;
72394;SDS011;60384;48.152;11.614;2024-03-08T14:33:36;16.67;;;8.68;;
72394;SDS011;60384;48.152;11.614;2024-03-08T14:36:39;15.80;;;8.68;;
72394;SDS011;60384;48.152;11.614;2024-03-08T14:42:42;18.77;;;8.50;;
72394;SDS011;60384;48.152;11.614;2024-03-08T14:45:45;12.73;;;6.43;;
72394;SDS011;60384;48.152;11.614;2024-03-08T14:48:49;16.23;;;8.90;;
72394;SDS011;60384;48.152;11.614;2024-03-08T14:51:52;16.60;;;8.60;;
72394;SDS011;60384;48.152;11.614;2024-03-08T14:54:55;16.92;;;8.32;;
72394;SDS011;60384;48.152;11.614;2024-03-08T14:57:58;15.80;;;8.25;;
72394;SDS011;60384;48.152;11.614;2024-03-08T15:04:03;14.50;;;6.38;;
72394;SDS011;60384;48.152;11.614;2024-03-08T15:07:08;19.48;;;10.00;;
72394;SDS011;60384;48.152;11.614;2024-03-08T15:10:12;18.45;;;9.07;;
72394;SDS011;60384;48.152;11.614;2024-03-08T15:13:16;16.63;;;8.90;;
72394;SDS011;60384;48.152;11.614;2024-03-08T15:16:23;14.23;;;7.65;;
72394;SDS011;60384;48.152;11.614;2024-03-08T15:19:26;16.00;;;8.52;;
72394;SDS011;60384;48.152;11.614;2024-03-08T15:22:29;15.38;;;7.70;;
72394;SDS011;60384;48.152;11.614;2024-03-08T15:25:31;16.13;;;8.35;;
72394;SDS011;60384;48.152;11.614;2024-03-08T15:28:35;19.83;;;9.85;;
72394;SDS011;60384;48.152;11.614;2024-03-08T15:34:43;15.88;;;7.70;;
72394;SDS011;60384;48.152;11.614;2024-03-08T15:37:45;16.20;;;7.90;;
72394;SDS011;60384;48.152;11.614;2024-03-08T15:40:47;16.85;;;8.38;;
72394;SDS011;60384;48.152;11.614;2024-03-08T15:43:51;15.98;;;8.88;;
72394;SDS011;60384;48.152;11.614;2024-03-08T15:46:55;15.75;;;7.80;;
72394;SDS011;60384;48.152;11.614;2024-03-08T15:53:04;16.13;;;8.00;;
72394;SDS011;60384;48.152;11.614;2024-03-08T15:56:06;15.10;;;7.03;;
72394;SDS011;60384;48.152;11.614;2024-03-08T15:59:12;17.98;;;9.07;;
72394;SDS011;60384;48.152;11.614;2024-03-08T16:02:14;16.50;;;7.93;;
72394;SDS011;60384;48.152;11.614;2024-03-08T16:05:20;17.05;;;7.50;;
72394;SDS011;60384;48.152;11.614;2024-03-08T16:08:22;16.38;;;8.25;;
72394;SDS011;60384;48.152;11.614;2024-03-08T16:11:24;15.95;;;8.70;;
72394;SDS011;60384;48.152;11.614;2024-03-08T16:14:27;17.58;;;8.40;;
72394;SDS011;60384;48.152;11.614;2024-03-08T16:17:29;15.93;;;7.80;;
72394;SDS011;60384;48.152;11.614;2024-03-08T16:23:35;18.98;;;9.15;;
72394;SDS011;60384;48.152;11.614;2024-03-08T16:26:38;18.15;;;8.07;;
72394;SDS011;60384;48.152;11.614;2024-03-08T16:29:41;17.83;;;8.65;;
72394;SDS011;60384;48.152;11.614;2024-03-08T16:32:45;15.88;;;7.90;;
72394;SDS011;60384;48.152;11.614;2024-03-08T16:35:49;18.85;;;8.45;;
72394;SDS011;60384;48.152;11.614;2024-03-08T16:38:51;15.88;;;8.25;;
72394;SDS011;60384;48.152;11.614;2024-03-08T16:41:54;17.17;;;8.68;;
72394;SDS011;60384;48.152;11.614;2024-03-08T16:44:57;17.52;;;9.15;;
72394;SDS011;60384;48.152;11.614;2024-03-08T16:47:59;16.95;;;8.85;;
72394;SDS011;60384;48.152;11.614;2024-03-08T16:51:02;17.58;;;8.70;;
72394;SDS011;60384;48.152;11.614;2024-03-08T16:54:08;17.02;;;8.23;;
72394;SDS011;60384;48.152;11.614;2024-03-08T16:57:12;17.17;;;8.25;;
72394;SDS011;60384;48.152;11.614;2024-03-08T17:03:18;16.45;;;8.27;;
72394;SDS011;60384;48.152;11.614;2024-03-08T17:06:22;14.20;;;5.95;;
72394;SDS011;60384;48.152;11.614;2024-03-08T17:09:26;16.95;;;8.00;;
72394;SDS011;60384;48.152;11.614;2024-03-08T17:12:28;17.08;;;8.15;;
72394;SDS011;60384;48.152;11.614;2024-03-08T17:15:30;18.42;;;8.25;;
72394;SDS011;60384;48.152;11.614;2024-03-08T17:18:34;17.83;;;8.43;;
72394;SDS011;60384;48.152;11.614;2024-03-08T17:21:41;16.55;;;7.25;;
72394;SDS011;60384;48.152;11.614;2024-03-08T17:24:43;18.10;;;8.77;;
72394;SDS011;60384;48.152;11.614;2024-03-08T17:27:46;17.23;;;8.40;;
72394;SDS011;60384;48.152;11.614;2024-03-08T17:30:51;18.33;;;8.85;;
72394;SDS011;60384;48.152;11.614;2024-03-08T17:33:56;17.10;;;8.98;;
72394;SDS011;60384;48.152;11.614;2024-03-08T17:37:00;17.38;;;8.73;;
72394;SDS011;60384;48.152;11.614;2024-03-08T17:40:02;18.17;;;9.30;;
72394;SDS011;60384;48.152;11.614;2024-03-08T17:43:09;16.15;;;8.05;;
72394;SDS011;60384;48.152;11.614;2024-03-08T17:46:13;18.67;;;8.57;;
72394;SDS011;60384;48.152;11.614;2024-03-08T17:49:16;19.88;;;9.57;;
72394;SDS011;60384;48.152;11.614;2024-03-08T17:55:22;21.35;;;8.68;;
72394;SDS011;60384;48.152;11.614;2024-03-08T17:58:25;17.17;;;8.35;;
72394;SDS011;60384;48.152;11.614;2024-03-08T18:04:29;20.50;;;8.80;;
72394;SDS011;60384;48.152;11.614;2024-03-08T18:07:32;17.35;;;8.85;;
72394;SDS011;60384;48.152;11.614;2024-03-08T18:10:35;18.23;;;8.52;;
72394;SDS011;60384;48.152;11.614;2024-03-08T18:13:41;18.35;;;9.20;;
72394;SDS011;60384;48.152;11.614;2024-03-08T18:16:43;18.10;;;8.52;;
72394;SDS011;60384;48.152;11.614;2024-03-08T18:19:56;18.13;;;9.20;;
72394;SDS011;60384;48.152;11.614;2024-03-08T18:23:00;20.23;;;9.23;;
72394;SDS011;60384;48.152;11.614;2024-03-08T18:26:03;17.45;;;8.80;;
72394;SDS011;60384;48.152;11.614;2024-03-08T18:29:05;19.98;;;10.40;;
72394;SDS011;60384;48.152;11.614;2024-03-08T18:32:09;19.92;;;9.10;;
72394;SDS011;60384;48.152;11.614;2024-03-08T18:35:21;18.52;;;8.50;;
72394;SDS011;60384;48.152;11.614;2024-03-08T18:38:27;20.25;;;9.63;;
72394;SDS011;60384;48.152;11.614;2024-03-08T18:41:29;19.92;;;9.00;;
72394;SDS011;60384;48.152;11.614;2024-03-08T18:44:37;17.42;;;8.85;;
72394;SDS011;60384;48.152;11.614;2024-03-08T18:47:44;18.65;;;8.93;;
72394;SDS011;60384;48.152;11.614;2024-03-08T18:50:48;17.90;;;8.25;;
72394;SDS011;60384;48.152;11.614;2024-03-08T18:53:52;20.25;;;8.82;;
72394;SDS011;60384;48.152;11.614;2024-03-08T18:57:04;17.92;;;8.45;;
72394;SDS011;60384;48.152;11.614;2024-03-08T19:00:14;19.45;;;8.77;;
72394;SDS011;60384;48.152;11.614;2024-03-08T19:03:22;17.67;;;8.35;;
72394;SDS011;60384;48.152;11.614;2024-03-08T19:09:34;18.63;;;8.30;;
72394;SDS011;60384;48.152;11.614;2024-03-08T19:12:36;19.00;;;8.77;;
72394;SDS011;60384;48.152;11.614;2024-03-08T19:15:38;19.98;;;8.82;;
72394;SDS011;60384;48.152;11.614;2024-03-08T19:18:42;16.63;;;8.07;;
72394;SDS011;60384;48.152;11.614;2024-03-08T19:21:45;17.90;;;8.25;;
72394;SDS011;60384;48.152;11.614;2024-03-08T19:24:48;16.67;;;8.45;;
72394;SDS011;60384;48.152;11.614;2024-03-08T19:27:50;17.38;;;8.68;;
72394;SDS011;60384;48.152;11.614;2024-03-08T19:30:53;17.77;;;8.00;;
72394;SDS011;60384;48.152;11.614;2024-03-08T19:33:56;17.67;;;8.43;;
72394;SDS011;60384;48.152;11.614;2024-03-08T19:40:01;17.50;;;7.97;;
72394;SDS011;60384;48.152;11.614;2024-03-08T19:43:06;14.63;;;7.05;;
72394;SDS011;60384;48.152;11.614;2024-03-08T19:46:09;16.35;;;7.95;;
72394;SDS011;60384;48.152;11.614;2024-03-08T19:49:12;17.40;;;8.15;;
72394;SDS011;60384;48.152;11.614;2024-03-08T19:52:17;20.38;;;8.75;;
72394;SDS011;60384;48.152;11.614;2024-03-08T19:55:23;17.42;;;7.60;;
72394;SDS011;60384;48.152;11.614;2024-03-08T19:58:25;16.58;;;7.63;;
72394;SDS011;60384;48.152;11.614;2024-03-08T20:04:30;17.80;;;7.75;;
72394;SDS011;60384;48.152;11.614;2024-03-08T20:10:35;16.37;;;6.97;;
72394;SDS011;60384;48.152;11.614;2024-03-08T20:13:38;15.88;;;7.47;;
72394;SDS011;60384;48.152;11.614;2024-03-08T20:16:41;18.17;;;8.50;;
72394;SDS011;60384;48.152;11.614;2024-03-08T20:19:43;17.90;;;7.97;;
72394;SDS011;60384;48.152;11.614;2024-03-08T20:22:46;17.30;;;7.35;;
72394;SDS011;60384;48.152;11.614;2024-03-08T20:25:53;15.40;;;7.13;;
72394;SDS011;60384;48.152;11.614;2024-03-08T20:28:56;15.38;;;7.47;;
72394;SDS011;60384;48.152;11.614;2024-03-08T20:31:59;23.02;;;8.70;;
72394;SDS011;60384;48.152;11.614;2024-03-08T20:38:04;17.55;;;7.65;;
72394;SDS011;60384;48.152;11.614;2024-03-08T20:41:08;15.15;;;6.78;;
72394;SDS011;60384;48.152;11.614;2024-03-08T20:44:11;15.90;;;7.35;;
72394;SDS011;60384;48.152;11.614;2024-03-08T20:47:16;14.02;;;6.78;;
72394;SDS011;60384;48.152;11.614;2024-03-08T20:50:22;15.48;;;7.20;;
72394;SDS011;60384;48.152;11.614;2024-03-08T20:53:25;17.35;;;8.02;;
72394;SDS011;60384;48.152;11.614;2024-03-08T20:56:29;20.00;;;8.02;;
72394;SDS011;60384;48.152;11.614;2024-03-08T20:59:32;17.00;;;7.20;;
72394;SDS011;60384;48.152;11.614;2024-03-08T21:05:36;17.30;;;7.50;;
72394;SDS011;60384;48.152;11.614;2024-03-08T21:08:41;15.48;;;7.65;;
72394;SDS011;60384;48.152;11.614;2024-03-08T21:11:45;15.88;;;7.40;;
72394;SDS011;60384;48.152;11.614;2024-03-08T21:14:50;17.35;;;7.15;;
72394;SDS011;60384;48.152;11.614;2024-03-08T21:17:52;16.80;;;7.00;;
72394;SDS011;60384;48.152;11.614;2024-03-08T21:23:57;17.20;;;7.47;;
72394;SDS011;60384;48.152;11.614;2024-03-08T21:27:04;14.95;;;7.57;;
72394;SDS011;60384;48.152;11.614;2024-03-08T21:30:10;16.05;;;6.43;;
72394;SDS011;60384;48.152;11.614;2024-03-08T21:33:17;16.25;;;7.20;;
72394;SDS011;60384;48.152;11.614;2024-03-08T21:36:19;14.98;;;5.75;;
72394;SDS011;60384;48.152;11.614;2024-03-08T21:39:22;14.38;;;7.28;;
72394;SDS011;60384;48.152;11.614;2024-03-08T21:42:32;16.85;;;7.72;;
72394;SDS011;60384;48.152;11.614;2024-03-08T21:45:34;15.68;;;6.93;;
72394;SDS011;60384;48.152;11.614;2024-03-08T21:48:37;16.92;;;7.30;;
72394;SDS011;60384;48.152;11.614;2024-03-08T21:51:40;15.00;;;7.18;;
72394;SDS011;60384;48.152;11.614;2024-03-08T21:54:46;13.35;;;6.20;;
72394;SDS011;60384;48.152;11.614;2024-03-08T21:57:52;17.55;;;7.28;;
72394;SDS011;60384;48.152;11.614;2024-03-08T22:00:54;14.98;;;6.55;;
72394;SDS011;60384;48.152;11.614;2024-03-08T22:03:56;17.80;;;7.13;;
72394;SDS011;60384;48.152;11.614;2024-03-08T22:06:58;16.50;;;7.18;;
72394;SDS011;60384;48.152;11.614;2024-03-08T22:10:03;14.13;;;6.53;;
72394;SDS011;60384;48.152;11.614;2024-03-08T22:13:07;16.17;;;7.70;;
72394;SDS011;60384;48.152;11.614;2024-03-08T22:16:09;17.02;;;7.57;;
72394;SDS011;60384;48.152;11.614;2024-03-08T22:19:13;14.88;;;6.70;;
72394;SDS011;60384;48.152;11.614;2024-03-08T22:25:18;16.42;;;7.18;;
72394;SDS011;60384;48.152;11.614;2024-03-08T22:28:25;14.85;;;6.60;;
72394;SDS011;60384;48.152;11.614;2024-03-08T22:31:27;14.18;;;6.35;;
72394;SDS011;60384;48.152;11.614;2024-03-08T22:37:31;15.02;;;6.95;;
72394;SDS011;60384;48.152;11.614;2024-03-08T22:40:49;16.80;;;7.70;;
72394;SDS011;60384;48.152;11.614;2024-03-08T22:49:08;14.18;;;5.95;;
72394;SDS011;60384;48.152;11.614;2024-03-08T22:52:54;14.75;;;6.40;;
72394;SDS011;60384;48.152;11.614;2024-03-08T22:56:01;14.13;;;6.40;;
72394;SDS011;60384;48.152;11.614;2024-03-08T22:59:08;13.65;;;6.00;;
72394;SDS011;60384;48.152;11.614;2024-03-08T23:02:20;14.20;;;5.95;;
72394;SDS011;60384;48.152;11.614;2024-03-08T23:05:24;14.15;;;5.93;;
72394;SDS011;60384;48.152;11.614;2024-03-08T23:12:13;15.55;;;6.05;;
72394;SDS011;60384;48.152;11.614;2024-03-08T23:15:20;14.63;;;6.07;;
72394;SDS011;60384;48.152;11.614;2024-03-08T23:18:28;15.60;;;7.22;;
72394;SDS011;60384;48.152;11.614;2024-03-08T23:21:38;15.52;;;7.13;;
72394;SDS011;60384;48.152;11.614;2024-03-08T23:24:40;15.07;;;6.90;;
72394;SDS011;60384;48.152;11.614;2024-03-08T23:27:46;15.85;;;7.18;;
72394;SDS011;60384;48.152;11.614;2024-03-08T23:30:52;16.02;;;6.43;;
72394;SDS011;60384;48.152;11.614;2024-03-08T23:33:57;13.90;;;6.28;;
72394;SDS011;60384;48.152;11.614;2024-03-08T23:37:03;12.50;;;6.50;;
72394;SDS011;60384;48.152;11.614;2024-03-08T23:40:08;13.20;;;5.72;;
72394;SDS011;60384;48.152;11.614;2024-03-08T23:43:12;14.35;;;6.15;;
72394;SDS011;60384;48.152;11.614;2024-03-08T23:46:23;13.43;;;6.05;;
72394;SDS011;60384;48.152;11.614;2024-03-08T23:49:45;13.45;;;5.70;;
72394;SDS011;60384;48.152;11.614;2024-03-08T23:53:00;15.10;;;6.68;;
72394;SDS011;60384;48.152;11.614;2024-03-08T23:56:07;15.02;;;6.47;;
72394;SDS011;60384;48.152;11.614;2024-03-08T23:59:11;13.57;;;5.90;;
